createdAt,value
2023-07-03T00:04:02.416Z,6.80
2023-07-03T00:14:02.354Z,7.40
2023-07-03T00:24:02.380Z,7.10
2023-07-03T00:34:02.406Z,6.50
2023-07-03T00:44:02.403Z,6.80
2023-07-03T00:54:02.419Z,5.60
2023-07-03T01:04:02.431Z,5.90
2023-07-03T01:14:02.455Z,5.50
2023-07-03T01:24:02.454Z,5.60
2023-07-03T01:34:02.445Z,5.50
2023-07-03T01:44:02.477Z,5.45
2023-07-03T01:54:02.464Z,5.10
2023-07-03T02:04:02.494Z,5.30
2023-07-03T02:14:02.492Z,5.20
2023-07-03T02:24:02.586Z,5.40
2023-07-03T02:34:02.619Z,5.20
2023-07-03T02:44:02.662Z,5.30
2023-07-03T02:54:02.655Z,5.70
2023-07-03T03:04:02.685Z,5.40
2023-07-03T03:14:02.714Z,5.20
2023-07-03T03:24:02.714Z,4.90
2023-07-03T03:34:02.712Z,5.30
2023-07-03T03:44:02.696Z,5.40
2023-07-03T03:54:02.722Z,5.90
2023-07-03T04:04:02.741Z,6.30
2023-07-03T04:14:02.799Z,6.10
2023-07-03T04:24:02.739Z,6.10
2023-07-03T04:34:02.782Z,6.60
2023-07-03T04:44:02.797Z,6.00
2023-07-03T04:54:02.782Z,6.20
2023-07-03T05:04:02.957Z,8.80
2023-07-03T05:14:02.795Z,9.70
2023-07-03T05:24:02.877Z,7.90
2023-07-03T05:34:02.850Z,9.30
2023-07-03T05:44:02.901Z,8.90
2023-07-03T05:54:02.913Z,8.40
2023-07-03T06:04:02.904Z,8.00
2023-07-03T06:14:02.895Z,7.40
2023-07-03T06:24:03.599Z,7.80
2023-07-03T06:34:02.932Z,7.00
2023-07-03T06:44:02.931Z,6.30
2023-07-03T06:54:02.985Z,5.50
2023-07-03T07:04:02.978Z,8.80
2023-07-03T07:14:02.984Z,5.80
2023-07-03T07:24:02.978Z,6.20
2023-07-03T07:34:02.979Z,6.70
2023-07-03T07:44:02.996Z,5.90
2023-07-03T07:54:03.016Z,6.20
2023-07-03T08:04:03.047Z,6.30
2023-07-03T08:14:03.041Z,5.30
2023-07-03T08:24:04.871Z,7.60
2023-07-03T08:34:03.107Z,4.70
2023-07-03T08:44:03.080Z,4.50
2023-07-03T08:54:03.068Z,3.80
2023-07-03T09:04:03.171Z,5.00
2023-07-03T09:14:03.115Z,5.30
2023-07-03T09:27:03.686Z,5.20
2023-07-03T09:40:03.186Z,5.20
2023-07-03T09:53:08.726Z,6.20
2023-07-03T10:19:03.280Z,6.20
2023-07-03T10:32:03.454Z,6.00
2023-07-03T10:45:03.290Z,5.60
2023-07-03T10:58:03.350Z,6.70
2023-07-03T11:11:05.726Z,6.70
2023-07-03T11:24:03.461Z,5.20
2023-07-03T11:37:04.868Z,4.70
2023-07-03T11:50:03.468Z,5.40
2023-07-03T12:03:03.604Z,4.80
2023-07-03T12:16:03.585Z,4.30
2023-07-03T12:29:03.577Z,4.70
2023-07-03T12:42:03.660Z,4.60
2023-07-03T13:08:03.706Z,4.80
2023-07-03T13:21:03.695Z,5.20
2023-07-03T13:34:03.810Z,4.80
2023-07-03T13:47:03.774Z,4.40
2023-07-03T14:00:03.780Z,4.90
2023-07-03T14:13:03.846Z,5.30
2023-07-03T14:26:03.854Z,5.10
2023-07-03T14:39:03.856Z,4.70
2023-07-03T14:52:03.876Z,5.10
2023-07-03T15:05:03.876Z,4.40
2023-07-03T15:18:03.919Z,4.60
2023-07-03T15:31:03.921Z,4.20
2023-07-03T15:44:03.946Z,4.80
2023-07-03T15:57:03.949Z,4.60
2023-07-03T16:10:04.062Z,4.20
2023-07-03T16:23:04.026Z,4.40
2023-07-03T16:36:04.037Z,4.40
2023-07-03T16:49:04.070Z,3.80
2023-07-03T17:02:04.201Z,4.10
2023-07-03T17:15:04.122Z,3.90
2023-07-03T17:28:04.175Z,3.50
2023-07-03T17:41:06.014Z,4.10
2023-07-03T17:54:04.190Z,4.80
2023-07-03T18:07:04.242Z,4.50
2023-07-03T18:20:04.247Z,5.40
2023-07-03T18:33:04.287Z,4.40
2023-07-03T18:46:04.315Z,6.00
2023-07-03T18:59:04.360Z,4.20
2023-07-03T19:12:06.506Z,5.80
2023-07-03T19:25:04.374Z,5.80
2023-07-03T19:38:04.407Z,5.60
2023-07-03T19:51:04.367Z,5.60
2023-07-03T20:04:04.584Z,7.30
2023-07-03T20:17:04.492Z,5.90
2023-07-03T20:30:04.454Z,6.90
2023-07-03T20:43:04.482Z,5.80
2023-07-03T20:56:04.528Z,7.40
2023-07-03T21:09:04.543Z,5.30
2023-07-03T21:22:04.511Z,6.30
2023-07-03T21:35:04.577Z,6.10
2023-07-03T21:48:04.583Z,6.10
2023-07-03T22:01:04.637Z,4.20
2023-07-03T22:14:04.679Z,5.90
2023-07-03T22:27:04.601Z,3.80
2023-07-03T22:40:04.595Z,4.30
2023-07-03T22:53:04.636Z,2.80
2023-07-03T23:06:04.665Z,3.70
2023-07-03T23:19:04.690Z,4.00
2023-07-03T23:32:04.741Z,3.30
2023-07-03T23:45:04.754Z,2.90
2023-07-03T23:58:04.817Z,2.40
